createdAt,value
2019-05-18T00:01:39.039Z,11.40
2019-05-18T00:03:58.714Z,11.50
2019-05-18T00:06:18.395Z,11.50
2019-05-18T00:08:38.174Z,11.50
2019-05-18T00:10:57.934Z,11.50
2019-05-18T00:13:18.011Z,11.50
2019-05-18T00:15:37.834Z,11.40
2019-05-18T00:17:57.498Z,11.50
2019-05-18T00:20:17.382Z,11.40
2019-05-18T00:22:37.233Z,11.20
2019-05-18T00:24:57.089Z,11.20
2019-05-18T00:27:16.998Z,10.90
2019-05-18T00:29:39.118Z,10.70
2019-05-18T00:31:59.409Z,10.80
2019-05-18T00:34:19.397Z,11.10
2019-05-18T00:36:39.267Z,11.10
2019-05-18T00:38:59.134Z,11.10
2019-05-18T00:41:19.282Z,11.30
2019-05-18T00:43:39.570Z,11.30
2019-05-18T00:45:59.450Z,11.30
2019-05-18T00:48:19.403Z,11.40
2019-05-18T00:50:39.997Z,11.30
2019-05-18T00:53:00.125Z,11.30
2019-05-18T00:55:20.567Z,11.40
2019-05-18T00:57:40.343Z,11.40
2019-05-18T00:59:59.990Z,11.40
2019-05-18T01:02:20.028Z,11.40
2019-05-18T01:04:39.858Z,11.40
2019-05-18T01:07:00.150Z,11.30
2019-05-18T01:09:20.142Z,11.30
2019-05-18T01:11:40.095Z,11.00
2019-05-18T01:14:00.420Z,11.10
2019-05-18T01:16:20.504Z,11.20
2019-05-18T01:18:40.423Z,11.10
2019-05-18T01:21:00.229Z,11.00
2019-05-18T01:26:44.198Z,10.90
2019-05-18T01:29:04.222Z,11.00
2019-05-18T01:31:23.970Z,11.00
2019-05-18T01:33:43.725Z,11.00
2019-05-18T01:36:04.837Z,11.10
2019-05-18T01:38:24.617Z,11.00
2019-05-18T01:40:44.513Z,11.00
2019-05-18T01:43:04.698Z,10.90
2019-05-18T01:45:25.058Z,10.90
2019-05-18T01:47:44.512Z,11.00
2019-05-18T01:50:05.946Z,11.00
2019-05-18T01:52:26.805Z,11.00
2019-05-18T01:54:47.081Z,11.00
2019-05-18T01:57:06.684Z,11.00
2019-05-18T01:59:26.748Z,10.90
2019-05-18T02:01:46.729Z,10.80
2019-05-18T02:04:06.750Z,10.70
2019-05-18T02:06:26.682Z,10.70
2019-05-18T02:08:46.778Z,10.60
2019-05-18T02:11:07.182Z,10.70
2019-05-18T02:13:27.270Z,10.60
2019-05-18T02:15:47.294Z,10.60
2019-05-18T02:18:07.427Z,10.60
2019-05-18T02:20:27.470Z,10.50
2019-05-18T02:22:47.420Z,10.40
2019-05-18T02:25:07.721Z,10.40
2019-05-18T02:27:27.654Z,10.50
2019-05-18T02:29:47.647Z,10.40
2019-05-18T02:32:07.648Z,10.40
2019-05-18T02:34:27.580Z,10.30
2019-05-18T02:36:47.238Z,10.40
2019-05-18T02:39:07.955Z,10.40
2019-05-18T02:41:28.171Z,10.30
2019-05-18T02:43:48.223Z,10.20
2019-05-18T02:46:08.084Z,10.30
2019-05-18T02:48:28.117Z,10.30
2019-05-18T02:50:47.850Z,10.20
2019-05-18T02:54:11.156Z,10.20
2019-05-18T02:56:31.577Z,10.20
2019-05-18T02:58:51.895Z,10.10
2019-05-18T03:01:11.858Z,10.10
2019-05-18T03:03:31.551Z,10.10
2019-05-18T03:05:51.343Z,10.00
2019-05-18T03:08:11.315Z,10.00
2019-05-18T03:10:31.537Z,9.90
2019-05-18T03:12:51.314Z,10.00
2019-05-18T03:15:11.222Z,10.00
2019-05-18T03:17:31.068Z,9.90
2019-05-18T03:19:51.108Z,9.80
2019-05-18T03:22:10.804Z,9.80
2019-05-18T03:24:30.451Z,9.80
2019-05-18T03:26:50.641Z,9.70
2019-05-18T03:29:10.647Z,9.80
2019-05-18T03:31:30.327Z,9.70
2019-05-18T03:33:50.284Z,9.60
2019-05-18T03:36:10.132Z,9.60
2019-05-18T03:38:29.831Z,9.60
2019-05-18T03:40:49.730Z,9.60
2019-05-18T03:43:09.670Z,9.50
2019-05-18T03:45:29.743Z,9.50
2019-05-18T03:47:49.483Z,9.60
2019-05-18T03:50:09.798Z,9.50
2019-05-18T03:52:29.626Z,9.50
2019-05-18T03:54:49.724Z,9.50
2019-05-18T03:57:09.365Z,9.40
2019-05-18T03:59:29.112Z,9.40
2019-05-18T04:01:49.087Z,9.50
2019-05-18T04:04:09.352Z,9.50
2019-05-18T04:06:29.979Z,9.50
2019-05-18T04:08:50.396Z,9.40
2019-05-18T04:11:11.214Z,9.40
2019-05-18T04:13:31.240Z,9.40
2019-05-18T04:15:51.213Z,9.40
2019-05-18T04:18:11.382Z,9.40
2019-05-18T04:20:31.590Z,9.50
2019-05-18T04:22:51.566Z,9.30
2019-05-18T04:25:11.411Z,9.30
2019-05-18T04:27:58.784Z,9.40
2019-05-18T04:30:19.021Z,9.40
2019-05-18T04:32:39.153Z,9.40
2019-05-18T04:34:58.986Z,9.40
2019-05-18T04:37:18.807Z,9.50
2019-05-18T04:39:38.755Z,9.40
2019-05-18T04:41:58.651Z,9.40
2019-05-18T04:44:20.717Z,9.40
2019-05-18T04:46:41.374Z,9.30
2019-05-18T04:49:01.408Z,9.20
2019-05-18T04:51:21.199Z,9.30
2019-05-18T04:53:41.026Z,9.30
2019-05-18T04:56:00.848Z,9.30
2019-05-18T04:58:20.859Z,9.40
2019-05-18T05:00:41.310Z,9.40
2019-05-18T05:03:01.366Z,9.50
2019-05-18T05:05:21.399Z,9.50
2019-05-18T05:07:41.454Z,9.50
2019-05-18T05:10:05.095Z,9.50
2019-05-18T05:12:25.118Z,9.60
2019-05-18T05:14:45.715Z,9.60
2019-05-18T05:17:05.987Z,9.70
2019-05-18T05:19:26.282Z,9.70
2019-05-18T05:21:46.195Z,9.80
2019-05-18T05:24:06.038Z,9.80
2019-05-18T05:26:26.290Z,9.90
2019-05-18T05:28:46.422Z,9.90
2019-05-18T05:31:06.599Z,10.00
2019-05-18T05:33:26.864Z,10.00
2019-05-18T05:35:46.550Z,10.20
2019-05-18T05:38:06.627Z,10.20
2019-05-18T05:40:26.851Z,10.30
2019-05-18T05:42:46.776Z,10.30
2019-05-18T05:45:07.940Z,10.40
2019-05-18T05:47:28.107Z,10.40
2019-05-18T05:49:49.438Z,10.50
2019-05-18T05:52:09.586Z,10.60
2019-05-18T05:54:29.498Z,10.60
2019-05-18T05:56:49.758Z,10.70
2019-05-18T05:59:09.833Z,10.80
2019-05-18T06:01:29.563Z,10.90
2019-05-18T06:03:49.494Z,10.90
2019-05-18T06:06:09.311Z,11.00
2019-05-18T06:08:29.036Z,11.10
2019-05-18T06:10:49.114Z,11.20
2019-05-18T06:13:12.141Z,11.30
2019-05-18T06:15:31.887Z,11.30
2019-05-18T06:17:52.218Z,11.50
2019-05-18T06:20:12.127Z,11.60
2019-05-18T06:22:32.267Z,11.70
2019-05-18T06:24:51.942Z,11.80
2019-05-18T06:27:13.359Z,11.90
2019-05-18T06:29:33.195Z,12.00
2019-05-18T06:31:52.788Z,12.10
2019-05-18T06:34:12.913Z,12.20
2019-05-18T06:36:33.050Z,12.30
2019-05-18T06:38:53.056Z,12.40
2019-05-18T06:41:13.451Z,12.50
2019-05-18T06:43:33.401Z,12.60
2019-05-18T06:45:54.280Z,12.60
2019-05-18T06:48:14.175Z,12.80
2019-05-18T06:50:34.171Z,12.90
2019-05-18T06:52:54.557Z,13.20
2019-05-18T06:55:14.598Z,13.30
2019-05-18T06:57:39.168Z,13.40
2019-05-18T07:00:05.221Z,13.60
2019-05-18T07:02:25.625Z,13.70
2019-05-18T07:04:45.260Z,13.80
2019-05-18T07:07:15.894Z,13.90
2019-05-18T07:09:33.691Z,14.00
2019-05-18T07:11:56.107Z,14.20
2019-05-18T07:14:25.193Z,14.20
2019-05-18T07:16:37.377Z,14.40
2019-05-18T07:18:57.611Z,14.50
2019-05-18T07:21:22.129Z,14.50
2019-05-18T07:23:38.726Z,14.70
2019-05-18T07:25:58.896Z,14.80
2019-05-18T07:28:18.723Z,14.90
2019-05-18T07:30:38.350Z,15.00
2019-05-18T07:32:58.231Z,15.10
2019-05-18T07:35:18.046Z,15.10
2019-05-18T07:37:37.797Z,15.10
2019-05-18T07:39:57.794Z,15.20
2019-05-18T07:42:17.441Z,15.30
2019-05-18T07:44:37.224Z,15.40
2019-05-18T07:46:57.119Z,15.60
2019-05-18T07:49:16.579Z,15.60
2019-05-18T07:51:37.467Z,15.70
2019-05-18T07:53:57.258Z,15.80
2019-05-18T07:56:21.291Z,15.90
2019-05-18T07:58:41.068Z,16.00
2019-05-18T08:01:00.787Z,16.00
2019-05-18T08:03:20.503Z,16.00
2019-05-18T08:05:40.371Z,16.10
2019-05-18T08:08:00.019Z,16.30
2019-05-18T08:10:33.466Z,16.50
2019-05-18T08:12:53.222Z,16.70
2019-05-18T08:15:13.286Z,16.90
2019-05-18T08:17:34.147Z,17.00
2019-05-18T08:19:54.167Z,17.10
2019-05-18T08:25:34.862Z,17.30
2019-05-18T08:27:54.754Z,17.40
2019-05-18T08:30:14.517Z,17.30
2019-05-18T08:32:35.939Z,17.40
2019-05-18T08:34:56.504Z,17.50
2019-05-18T08:37:16.687Z,17.60
2019-05-18T08:39:39.837Z,17.80
2019-05-18T08:41:59.802Z,18.00
2019-05-18T08:44:21.189Z,18.10
2019-05-18T08:46:43.988Z,18.20
2019-05-18T08:49:04.677Z,18.40
2019-05-18T08:51:30.242Z,18.50
2019-05-18T08:53:50.646Z,18.80
2019-05-18T08:56:10.700Z,18.90
2019-05-18T08:58:30.666Z,18.90
2019-05-18T09:00:50.561Z,19.10
2019-05-18T09:03:10.402Z,19.20
2019-05-18T09:05:30.176Z,19.40
2019-05-18T09:07:49.826Z,19.50
2019-05-18T09:10:09.771Z,19.60
2019-05-18T09:12:29.406Z,19.80
2019-05-18T09:14:49.802Z,19.90
2019-05-18T09:17:09.669Z,20.10
2019-05-18T09:19:31.052Z,20.10
2019-05-18T09:21:50.770Z,20.10
2019-05-18T09:24:10.651Z,20.10
2019-05-18T09:26:30.567Z,20.30
2019-05-18T09:28:50.509Z,20.40
2019-05-18T09:31:10.235Z,20.50
2019-05-18T09:33:30.022Z,20.50
2019-05-18T09:35:49.775Z,20.50
2019-05-18T09:38:10.530Z,20.60
2019-05-18T09:40:30.256Z,20.60
2019-05-18T09:42:50.083Z,20.70
2019-05-18T09:45:10.516Z,20.90
2019-05-18T09:47:30.672Z,21.00
2019-05-18T09:49:50.278Z,21.10
2019-05-18T09:52:10.030Z,21.30
2019-05-18T09:54:29.795Z,21.40
2019-05-18T09:56:49.680Z,21.50
2019-05-18T09:59:09.667Z,21.80
2019-05-18T10:01:29.663Z,21.90
2019-05-18T10:03:49.246Z,22.10
2019-05-18T10:06:09.403Z,22.30
2019-05-18T10:08:29.114Z,22.30
2019-05-18T10:10:49.173Z,22.40
2019-05-18T10:13:09.178Z,22.20
2019-05-18T10:15:29.307Z,21.70
2019-05-18T10:18:50.974Z,22.00
2019-05-18T10:21:10.650Z,22.00
2019-05-18T10:23:30.885Z,22.00
2019-05-18T10:25:50.937Z,22.20
2019-05-18T10:28:10.856Z,22.30
2019-05-18T10:30:31.254Z,22.50
2019-05-18T10:32:51.641Z,22.70
2019-05-18T10:35:11.697Z,23.00
2019-05-18T10:37:31.714Z,23.20
2019-05-18T10:39:51.587Z,23.40
2019-05-18T10:42:11.407Z,23.70
2019-05-18T10:44:31.540Z,24.10
2019-05-18T10:46:51.192Z,24.40
2019-05-18T10:49:11.109Z,24.60
2019-05-18T10:51:31.881Z,24.80
2019-05-18T10:53:52.323Z,24.90
2019-05-18T10:56:12.602Z,24.90
2019-05-18T10:58:32.759Z,25.10
2019-05-18T11:00:52.898Z,25.30
2019-05-18T11:03:13.177Z,25.20
2019-05-18T11:05:32.999Z,25.20
2019-05-18T11:07:52.771Z,25.20
2019-05-18T11:10:12.654Z,25.40
2019-05-18T11:12:32.830Z,25.50
2019-05-18T11:14:52.794Z,25.60
2019-05-18T11:17:12.646Z,25.60
2019-05-18T11:19:32.412Z,25.60
2019-05-18T11:21:52.565Z,25.60
2019-05-18T11:24:13.061Z,25.70
2019-05-18T11:26:33.292Z,25.60
2019-05-18T11:28:53.060Z,25.80
2019-05-18T11:31:12.652Z,26.30
2019-05-18T11:33:32.425Z,26.50
2019-05-18T11:35:52.307Z,26.50
2019-05-18T11:38:12.170Z,26.50
2019-05-18T11:40:32.148Z,26.70
2019-05-18T11:42:52.007Z,24.80
2019-05-18T11:45:13.046Z,24.40
2019-05-18T11:47:33.145Z,25.10
2019-05-18T11:49:53.180Z,25.70
2019-05-18T11:52:13.027Z,26.40
2019-05-18T11:54:32.623Z,26.90
2019-05-18T11:56:52.429Z,27.40
2019-05-18T11:59:15.523Z,27.20
2019-05-18T12:01:34.115Z,26.80
2019-05-18T12:03:53.637Z,26.60
2019-05-18T12:06:13.855Z,26.40
2019-05-18T12:08:33.655Z,25.70
2019-05-18T12:10:56.129Z,25.70
2019-05-18T12:13:15.179Z,25.60
2019-05-18T12:15:35.222Z,25.50
2019-05-18T12:17:54.690Z,25.80
2019-05-18T12:20:14.858Z,26.30
2019-05-18T12:22:35.026Z,26.20
2019-05-18T12:24:54.665Z,26.70
2019-05-18T12:27:14.730Z,27.10
2019-05-18T12:29:34.768Z,27.50
2019-05-18T12:31:54.755Z,28.00
2019-05-18T12:34:14.225Z,28.40
2019-05-18T12:36:34.168Z,28.70
2019-05-18T12:38:53.974Z,28.90
2019-05-18T12:41:16.628Z,29.10
2019-05-18T12:43:36.745Z,29.30
2019-05-18T12:45:56.630Z,29.70
2019-05-18T12:48:17.362Z,29.90
2019-05-18T12:50:38.366Z,30.20
2019-05-18T12:52:58.372Z,30.40
2019-05-18T12:55:18.395Z,30.60
2019-05-18T12:57:38.173Z,30.70
2019-05-18T12:59:57.971Z,30.60
2019-05-18T13:02:17.879Z,30.60
2019-05-18T13:04:37.936Z,30.60
2019-05-18T13:06:58.076Z,30.40
2019-05-18T13:09:18.014Z,30.40
2019-05-18T13:11:38.076Z,30.00
2019-05-18T13:13:57.705Z,29.70
2019-05-18T13:16:17.542Z,29.50
2019-05-18T13:18:37.322Z,29.30
2019-05-18T13:20:57.121Z,29.50
2019-05-18T13:23:17.028Z,29.80
2019-05-18T13:25:36.849Z,30.30
2019-05-18T13:27:56.864Z,30.50
2019-05-18T13:30:19.922Z,30.90
2019-05-18T13:32:40.697Z,31.30
2019-05-18T13:35:00.924Z,31.60
2019-05-18T13:37:20.583Z,31.90
2019-05-18T13:39:43.634Z,32.10
2019-05-18T13:42:04.015Z,32.20
2019-05-18T13:44:23.647Z,32.40
2019-05-18T13:46:43.426Z,32.40
2019-05-18T13:49:04.592Z,32.30
2019-05-18T13:51:24.947Z,32.20
2019-05-18T13:53:44.963Z,32.20
2019-05-18T13:56:04.675Z,32.30
2019-05-18T13:58:24.613Z,32.50
2019-05-18T14:00:44.750Z,32.80
2019-05-18T14:03:04.872Z,33.00
2019-05-18T14:05:25.784Z,33.20
2019-05-18T14:07:45.939Z,33.40
2019-05-18T14:10:06.917Z,33.60
2019-05-18T14:12:27.032Z,33.70
2019-05-18T14:14:47.270Z,33.90
2019-05-18T14:17:07.103Z,34.00
2019-05-18T14:19:26.925Z,33.90
2019-05-18T14:21:46.591Z,34.00
2019-05-18T14:24:07.419Z,34.10
2019-05-18T14:26:27.274Z,34.20
2019-05-18T14:28:47.265Z,34.10
2019-05-18T14:31:07.065Z,34.10
2019-05-18T14:33:27.144Z,34.20
2019-05-18T14:35:47.096Z,34.30
2019-05-18T14:38:07.398Z,34.40
2019-05-18T14:40:27.223Z,34.40
2019-05-18T14:42:47.058Z,34.50
2019-05-18T14:45:07.329Z,34.40
2019-05-18T14:47:27.701Z,34.30
2019-05-18T14:49:47.882Z,34.30
2019-05-18T14:52:11.833Z,34.20
2019-05-18T14:54:30.307Z,34.10
2019-05-18T14:56:50.278Z,34.30
2019-05-18T14:59:10.208Z,34.40
2019-05-18T15:01:30.253Z,34.50
2019-05-18T15:03:50.847Z,34.50
2019-05-18T15:06:10.618Z,34.50
2019-05-18T15:08:31.139Z,34.60
2019-05-18T15:10:50.959Z,34.40
2019-05-18T15:13:10.885Z,34.50
2019-05-18T15:15:30.526Z,34.50
2019-05-18T15:17:52.666Z,34.50
2019-05-18T15:19:54.258Z,34.50
2019-05-18T15:21:55.498Z,34.40
2019-05-18T15:23:56.681Z,34.40
2019-05-18T15:25:57.893Z,34.30
2019-05-18T15:27:10.837Z,34.40
2019-05-18T15:27:21.979Z,34.40
2019-05-18T15:27:33.106Z,34.40
2019-05-18T15:27:44.247Z,34.40
2019-05-18T15:27:55.699Z,34.40
2019-05-18T15:28:06.827Z,34.40
2019-05-18T15:28:18.077Z,34.40
2019-05-18T15:28:29.206Z,34.50
2019-05-18T15:28:40.387Z,34.50
2019-05-18T15:28:51.588Z,34.40
2019-05-18T15:29:03.075Z,34.50
2019-05-18T15:29:14.191Z,34.50
2019-05-18T15:29:25.309Z,34.50
2019-05-18T15:29:36.782Z,34.50
2019-05-18T15:31:51.776Z,34.50
2019-05-18T15:32:50.785Z,34.60
2019-05-18T15:33:11.945Z,34.60
2019-05-18T15:33:33.066Z,34.60
2019-05-18T15:33:54.198Z,34.60
2019-05-18T15:34:15.432Z,34.50
2019-05-18T15:34:36.544Z,34.50
2019-05-18T15:34:57.761Z,34.50
2019-05-18T15:35:18.963Z,34.60
2019-05-18T15:35:40.137Z,34.50
2019-05-18T15:36:01.459Z,34.50
2019-05-18T15:36:22.686Z,34.50
2019-05-18T15:36:43.818Z,34.50
2019-05-18T15:37:07.767Z,34.40
2019-05-18T15:37:28.911Z,34.40
2019-05-18T15:37:50.335Z,34.40
2019-05-18T15:38:52.834Z,34.10
2019-05-18T15:39:13.966Z,34.10
2019-05-18T15:39:35.116Z,34.20
2019-05-18T15:39:56.244Z,34.20
2019-05-18T15:40:18.066Z,34.30
2019-05-18T15:40:39.220Z,34.20
2019-05-18T15:41:00.350Z,34.30
2019-05-18T15:41:21.494Z,34.30
2019-05-18T15:41:42.612Z,34.30
2019-05-18T15:42:05.142Z,34.40
2019-05-18T15:42:26.261Z,34.40
2019-05-18T15:42:47.396Z,34.50
2019-05-18T15:43:08.618Z,34.50
2019-05-18T15:43:29.751Z,34.50
2019-05-18T15:43:50.868Z,34.50
2019-05-18T15:44:12.296Z,34.60
2019-05-18T15:44:33.668Z,34.60
2019-05-18T15:44:54.798Z,34.60
2019-05-18T15:45:16.428Z,34.70
2019-05-18T15:45:37.567Z,34.70
2019-05-18T15:46:00.706Z,34.70
2019-05-18T15:47:29.562Z,31.10
2019-05-18T15:47:50.821Z,30.30
2019-05-18T15:48:12.416Z,29.50
2019-05-18T15:48:33.710Z,28.90
2019-05-18T15:48:56.330Z,28.30
2019-05-18T15:49:18.123Z,28.20
2019-05-18T15:51:16.208Z,27.80
2019-05-18T15:51:37.482Z,28.10
2019-05-18T15:51:58.970Z,28.30
2019-05-18T15:52:20.245Z,28.60
2019-05-18T15:52:41.531Z,28.90
2019-05-18T15:53:02.878Z,29.10
2019-05-18T15:53:24.193Z,29.40
2019-05-18T15:53:45.541Z,29.60
2019-05-18T15:54:06.865Z,29.90
2019-05-18T15:54:28.126Z,30.10
2019-05-18T15:54:49.637Z,30.30
2019-05-18T15:55:11.225Z,30.60
2019-05-18T15:55:32.619Z,30.80
2019-05-18T15:56:05.213Z,31.00
2019-05-18T15:56:17.085Z,31.20
2019-05-18T15:56:38.318Z,31.40
2019-05-18T15:56:59.575Z,31.50
2019-05-18T15:57:20.826Z,31.70
2019-05-18T15:57:42.073Z,31.90
2019-05-18T15:58:03.326Z,32.00
2019-05-18T15:58:24.581Z,32.20
2019-05-18T15:58:45.849Z,32.30
2019-05-18T15:59:07.091Z,32.50
2019-05-18T15:59:28.353Z,32.70
2019-05-18T15:59:49.747Z,32.70
2019-05-18T16:00:11.613Z,32.80
2019-05-18T16:00:32.849Z,32.90
2019-05-18T16:00:54.369Z,33.10
2019-05-18T16:01:15.626Z,33.10
2019-05-18T16:03:28.677Z,33.20
2019-05-18T16:05:30.258Z,33.60
2019-05-18T16:07:31.534Z,33.70
2019-05-18T16:09:32.835Z,33.80
2019-05-18T16:11:34.097Z,34.00
2019-05-18T16:13:35.415Z,34.20
2019-05-18T16:15:36.690Z,34.30
2019-05-18T16:17:39.994Z,34.40
2019-05-18T16:19:41.150Z,34.50
2019-05-18T16:21:42.406Z,34.50
2019-05-18T16:23:43.550Z,34.50
2019-05-18T16:25:44.817Z,34.60
2019-05-18T16:27:46.196Z,34.60
2019-05-18T16:29:47.626Z,34.60
2019-05-18T16:31:49.070Z,34.60
2019-05-18T16:33:50.358Z,34.50
2019-05-18T16:35:51.907Z,34.10
2019-05-18T16:37:53.275Z,33.80
2019-05-18T16:39:54.699Z,33.80
2019-05-18T16:41:56.221Z,33.80
2019-05-18T16:43:57.552Z,33.70
2019-05-18T16:45:58.938Z,33.60
2019-05-18T16:48:00.217Z,33.40
2019-05-18T16:50:01.506Z,33.20
2019-05-18T16:52:03.039Z,32.90
2019-05-18T16:54:04.688Z,32.80
2019-05-18T16:56:05.969Z,32.60
2019-05-18T16:58:07.114Z,32.40
2019-05-18T17:00:09.710Z,32.40
2019-05-18T17:02:10.987Z,32.30
2019-05-18T17:04:12.361Z,32.30
2019-05-18T17:06:16.319Z,32.30
2019-05-18T17:08:16.687Z,32.30
2019-05-18T17:10:17.946Z,32.50
2019-05-18T17:12:19.208Z,32.60
2019-05-18T17:14:20.487Z,32.60
2019-05-18T17:16:22.779Z,32.50
2019-05-18T17:18:24.177Z,32.40
2019-05-18T17:20:25.336Z,32.20
2019-05-18T17:22:27.908Z,32.00
2019-05-18T17:24:29.198Z,31.50
2019-05-18T17:26:30.350Z,31.00
2019-05-18T17:28:31.709Z,30.30
2019-05-18T17:30:32.857Z,29.70
2019-05-18T17:32:34.141Z,29.20
2019-05-18T17:34:35.363Z,28.70
2019-05-18T17:36:36.634Z,28.30
2019-05-18T17:38:37.796Z,28.30
2019-05-18T17:40:39.177Z,27.90
2019-05-18T17:42:40.740Z,27.70
2019-05-18T17:44:42.048Z,27.30
2019-05-18T17:46:43.201Z,27.20
2019-05-18T17:48:44.502Z,27.10
2019-05-18T17:50:46.106Z,26.80
2019-05-18T17:52:47.323Z,26.70
2019-05-18T17:54:48.726Z,26.40
2019-05-18T17:56:50.006Z,26.30
2019-05-18T17:58:51.307Z,26.20
2019-05-18T18:00:52.602Z,26.10
2019-05-18T18:02:53.867Z,26.10
2019-05-18T18:04:55.217Z,25.80
2019-05-18T18:06:56.369Z,25.80
2019-05-18T18:08:57.630Z,25.70
2019-05-18T18:10:58.937Z,25.60
2019-05-18T18:13:00.195Z,25.40
2019-05-18T18:15:01.766Z,25.30
2019-05-18T18:17:03.880Z,25.20
2019-05-18T18:19:05.227Z,25.10
2019-05-18T18:21:06.511Z,25.00
2019-05-18T18:23:07.809Z,25.10
2019-05-18T18:25:09.477Z,24.90
2019-05-18T18:27:24.203Z,24.60
2019-05-18T18:29:14.054Z,24.70
2019-05-18T18:31:15.446Z,24.70
2019-05-18T18:33:16.605Z,24.70
2019-05-18T18:35:17.874Z,24.60
2019-05-18T18:37:19.501Z,24.40
2019-05-18T18:39:21.848Z,24.30
2019-05-18T18:41:23.096Z,24.20
2019-05-18T18:43:24.475Z,24.20
2019-05-18T18:45:25.614Z,24.20
2019-05-18T18:47:26.921Z,24.10
2019-05-18T18:49:28.203Z,24.20
2019-05-18T18:51:29.498Z,24.10
2019-05-18T18:53:31.333Z,24.00
2019-05-18T18:55:32.607Z,23.90
2019-05-18T18:57:41.126Z,23.90
2019-05-18T18:59:37.248Z,23.90
2019-05-18T19:01:38.537Z,23.80
2019-05-18T19:03:39.885Z,23.70
2019-05-18T19:05:41.255Z,23.70
2019-05-18T19:07:42.570Z,23.60
2019-05-18T19:09:43.960Z,23.60
2019-05-18T19:11:45.115Z,23.50
2019-05-18T19:13:46.421Z,23.40
2019-05-18T19:15:47.700Z,23.30
2019-05-18T19:17:48.978Z,23.20
2019-05-18T19:19:50.249Z,23.10
2019-05-18T19:21:51.534Z,23.00
2019-05-18T19:23:52.817Z,22.90
2019-05-18T19:25:54.194Z,22.70
2019-05-18T19:27:56.474Z,22.60
2019-05-18T19:29:57.871Z,22.50
2019-05-18T19:31:59.255Z,22.40
2019-05-18T19:34:00.518Z,22.30
2019-05-18T19:36:01.806Z,22.20
2019-05-18T19:38:03.269Z,22.10
2019-05-18T19:40:05.548Z,22.00
2019-05-18T19:42:07.082Z,21.90
2019-05-18T19:44:08.235Z,21.80
2019-05-18T19:46:09.503Z,21.70
2019-05-18T19:48:10.775Z,21.60
2019-05-18T19:50:14.339Z,21.50
2019-05-18T19:52:15.719Z,21.40
2019-05-18T19:54:16.982Z,21.30
2019-05-18T19:56:18.413Z,21.20
2019-05-18T19:58:19.654Z,21.10
2019-05-18T20:00:21.728Z,21.10
2019-05-18T20:02:23.081Z,21.00
2019-05-18T20:04:24.344Z,21.00
2019-05-18T20:06:25.686Z,20.90
2019-05-18T20:08:26.954Z,20.80
2019-05-18T20:10:28.229Z,20.60
2019-05-18T20:12:29.539Z,20.60
2019-05-18T20:14:30.807Z,20.40
2019-05-18T20:16:32.081Z,20.30
2019-05-18T20:18:33.457Z,20.20
2019-05-18T20:20:35.151Z,20.20
2019-05-18T20:22:36.674Z,20.10
2019-05-18T20:24:37.977Z,19.90
2019-05-18T20:26:39.245Z,19.90
2019-05-18T20:28:40.551Z,19.80
2019-05-18T20:30:42.172Z,19.70
2019-05-18T20:32:43.546Z,19.60
2019-05-18T20:34:44.818Z,19.50
2019-05-18T20:36:46.134Z,19.40
2019-05-18T20:38:47.508Z,19.30
2019-05-18T20:40:48.761Z,19.20
2019-05-18T20:42:50.042Z,19.10
2019-05-18T20:44:52.408Z,19.00
2019-05-18T20:46:53.934Z,19.00
2019-05-18T20:48:55.344Z,18.90
2019-05-18T20:50:56.854Z,18.80
2019-05-18T20:52:58.035Z,18.80
2019-05-18T20:54:59.479Z,18.70
2019-05-18T20:57:00.734Z,18.60
2019-05-18T20:59:02.015Z,18.50
2019-05-18T21:01:03.274Z,18.50
2019-05-18T21:03:04.731Z,18.40
2019-05-18T21:05:06.189Z,18.30
2019-05-18T21:07:07.457Z,18.30
2019-05-18T21:09:08.806Z,18.10
2019-05-18T21:11:10.061Z,18.10
2019-05-18T21:13:11.360Z,18.00
2019-05-18T21:15:13.137Z,18.00
2019-05-18T21:17:14.855Z,17.90
2019-05-18T21:19:16.089Z,17.90
2019-05-18T21:21:17.345Z,17.80
2019-05-18T21:23:18.973Z,17.70
2019-05-18T21:25:20.128Z,17.70
2019-05-18T21:27:21.473Z,17.60
2019-05-18T21:29:22.757Z,17.50
2019-05-18T21:31:25.023Z,17.50
2019-05-18T21:33:26.291Z,17.40
2019-05-18T21:35:27.545Z,17.30
2019-05-18T21:37:28.911Z,17.30
2019-05-18T21:39:30.227Z,17.20
2019-05-18T21:41:33.683Z,17.20
2019-05-18T21:43:34.991Z,17.10
2019-05-18T21:45:36.261Z,17.00
2019-05-18T21:47:37.546Z,17.00
2019-05-18T21:49:38.822Z,16.90
2019-05-18T21:51:40.207Z,16.90
2019-05-18T21:53:41.487Z,16.80
2019-05-18T21:55:43.742Z,16.80
2019-05-18T21:57:45.018Z,16.70
2019-05-18T21:59:46.298Z,16.70
2019-05-18T22:01:47.557Z,16.60
2019-05-18T22:03:48.829Z,16.50
2019-05-18T22:05:50.169Z,16.50
2019-05-18T22:07:52.546Z,16.50
2019-05-18T22:09:53.991Z,16.40
2019-05-18T22:11:55.250Z,16.40
2019-05-18T22:13:56.570Z,16.30
2019-05-18T22:15:57.826Z,16.30
2019-05-18T22:18:02.399Z,16.30
2019-05-18T22:20:04.594Z,16.20
2019-05-18T22:22:05.929Z,16.10
2019-05-18T22:24:07.201Z,16.00
2019-05-18T22:26:08.825Z,16.00
2019-05-18T22:28:10.209Z,16.00
2019-05-18T22:30:11.594Z,15.90
2019-05-18T22:32:12.867Z,15.90
2019-05-18T22:34:14.146Z,15.80
2019-05-18T22:36:16.431Z,15.70
2019-05-18T22:38:18.150Z,15.70
2019-05-18T22:40:19.303Z,15.70
2019-05-18T22:42:22.118Z,15.60
2019-05-18T22:44:23.397Z,15.60
2019-05-18T22:46:24.774Z,15.50
2019-05-18T22:48:40.378Z,15.50
2019-05-18T22:50:29.639Z,15.40
2019-05-18T22:52:30.837Z,15.40
2019-05-18T22:54:32.115Z,15.30
2019-05-18T22:56:33.375Z,15.30
2019-05-18T22:58:34.634Z,15.40
2019-05-18T23:00:35.910Z,15.30
2019-05-18T23:02:37.165Z,15.30
2019-05-18T23:04:38.436Z,15.20
2019-05-18T23:06:39.702Z,15.20
2019-05-18T23:08:40.964Z,15.20
2019-05-18T23:10:42.240Z,15.20
2019-05-18T23:12:43.602Z,15.20
2019-05-18T23:14:44.869Z,15.10
2019-05-18T23:16:46.130Z,15.10
2019-05-18T23:18:56.337Z,15.00
2019-05-18T23:20:50.565Z,15.00
2019-05-18T23:22:51.836Z,15.00
2019-05-18T23:24:53.101Z,14.90
2019-05-18T23:26:54.362Z,14.90
2019-05-18T23:28:55.681Z,14.80
2019-05-18T23:30:56.962Z,14.80
2019-05-18T23:32:58.226Z,14.70
2019-05-18T23:34:59.575Z,14.70
2019-05-18T23:37:00.855Z,14.60
2019-05-18T23:39:04.428Z,14.50
2019-05-18T23:41:05.705Z,14.50
2019-05-18T23:43:07.225Z,14.50
2019-05-18T23:45:08.684Z,14.50
2019-05-18T23:47:09.949Z,14.50
2019-05-18T23:49:11.426Z,14.40
2019-05-18T23:51:12.733Z,14.40
2019-05-18T23:53:13.995Z,14.30
2019-05-18T23:55:16.269Z,14.30
2019-05-18T23:57:17.811Z,14.20
2019-05-18T23:59:19.102Z,14.10
